Terminal Aerodrome Forecast
Issued by NWS

Home | Current Version | Previous Version | Text Only | Print | Product List | Glossary On
Versions: 1 2 3 4 5 6 7 8 9 10 11 12 13 14 15 16 17 18
000
FTUS43 KMQT 161100
TAFCMX
TAF
KCMX 161127Z 1612/1712 VRB03KT P6SM SCT200
     FM161400 14005KT P6SM BKN100
     FM162000 11008KT P6SM -SN OVC050
     FM162100 09010KT 3SM -SN OVC025
     FM162300 09014G23KT 1/2SM SN BLSN OVC007=

USA.gov is the U.S. government's official web portal to all federal, state and local government web resources and services.